createdAt,value
2022-10-29T00:01:01.799Z,28.42
2022-10-29T00:03:29.061Z,26.17
2022-10-29T00:05:59.521Z,28.55
2022-10-29T00:08:28.557Z,28.80
2022-10-29T00:10:56.189Z,24.95
2022-10-29T00:13:23.720Z,20.45
2022-10-29T00:15:50.950Z,20.33
2022-10-29T00:18:18.211Z,22.67
2022-10-29T00:20:45.554Z,20.50
2022-10-29T00:23:12.902Z,19.20
2022-10-29T00:25:40.151Z,17.48
2022-10-29T00:28:07.407Z,23.23
2022-10-29T00:30:35.816Z,17.70
2022-10-29T00:33:03.029Z,17.13
2022-10-29T00:35:30.219Z,18.30
2022-10-29T00:37:57.688Z,20.58
2022-10-29T00:40:25.188Z,19.92
2022-10-29T00:42:52.371Z,20.70
2022-10-29T00:45:21.256Z,29.35
2022-10-29T00:47:53.549Z,28.65
2022-10-29T00:50:23.706Z,22.85
2022-10-29T00:52:52.202Z,23.73
2022-10-29T00:55:20.985Z,27.20
2022-10-29T00:57:54.767Z,27.85
2022-10-29T01:00:22.453Z,25.38
2022-10-29T01:02:50.203Z,29.42
2022-10-29T01:05:21.623Z,25.23
2022-10-29T01:07:49.546Z,27.80
2022-10-29T01:10:22.807Z,20.63
2022-10-29T01:13:22.453Z,22.00
2022-10-29T01:16:11.319Z,28.88
2022-10-29T01:18:58.281Z,25.85
2022-10-29T01:21:38.672Z,22.38
2022-10-29T01:24:14.502Z,24.45
2022-10-29T01:27:20.497Z,20.88
2022-10-29T01:30:13.703Z,25.60
2022-10-29T01:33:09.975Z,20.55
2022-10-29T01:36:19.143Z,21.88
2022-10-29T01:39:26.688Z,20.40
2022-10-29T01:42:28.902Z,17.88
2022-10-29T01:45:33.944Z,20.95
2022-10-29T01:48:12.106Z,22.48
2022-10-29T01:50:44.587Z,21.38
2022-10-29T01:53:12.086Z,26.42
2022-10-29T01:55:39.441Z,20.88
2022-10-29T01:58:07.667Z,24.63
2022-10-29T02:00:56.747Z,29.30
2022-10-29T02:04:03.832Z,28.20
2022-10-29T02:07:30.553Z,23.95
2022-10-29T02:10:19.751Z,20.85
2022-10-29T02:12:54.092Z,20.33
2022-10-29T02:15:48.499Z,20.73
2022-10-29T02:18:17.278Z,20.75
2022-10-29T02:20:46.865Z,20.80
2022-10-29T02:23:15.418Z,24.65
2022-10-29T02:25:42.931Z,23.50
2022-10-29T02:28:10.441Z,20.88
2022-10-29T02:30:37.687Z,18.65
2022-10-29T02:33:05.044Z,26.13
2022-10-29T02:35:32.355Z,24.80
2022-10-29T02:37:59.577Z,30.20
2022-10-29T02:40:26.800Z,29.25
2022-10-29T02:42:54.959Z,32.72
2022-10-29T02:45:22.595Z,36.50
2022-10-29T02:47:49.818Z,28.52
2022-10-29T02:50:17.124Z,26.55
2022-10-29T02:52:44.312Z,26.58
2022-10-29T02:55:11.536Z,31.48
2022-10-29T02:57:38.749Z,29.05
2022-10-29T03:00:06.861Z,35.08
2022-10-29T03:02:34.193Z,29.90
2022-10-29T03:05:01.596Z,22.73
2022-10-29T03:07:28.927Z,24.33
2022-10-29T03:09:56.124Z,22.98
2022-10-29T03:12:23.323Z,30.45
2022-10-29T03:14:50.575Z,25.02
2022-10-29T03:17:17.747Z,26.10
2022-10-29T03:19:44.917Z,29.13
2022-10-29T03:22:12.114Z,25.58
2022-10-29T03:24:39.320Z,23.95
2022-10-29T03:27:06.636Z,19.55
2022-10-29T03:29:33.804Z,23.92
2022-10-29T03:32:01.049Z,24.95
2022-10-29T03:34:28.340Z,19.02
2022-10-29T03:36:55.525Z,21.13
2022-10-29T03:39:22.715Z,19.73
2022-10-29T03:41:49.885Z,22.83
2022-10-29T03:44:17.173Z,29.80
2022-10-29T03:46:44.353Z,30.13
2022-10-29T03:49:11.606Z,29.27
2022-10-29T03:51:39.687Z,37.90
2022-10-29T03:54:06.861Z,30.33
2022-10-29T03:56:34.058Z,21.00
2022-10-29T03:59:01.220Z,30.55
2022-10-29T04:01:28.622Z,26.48
2022-10-29T04:03:55.857Z,35.15
2022-10-29T04:06:23.266Z,32.15
2022-10-29T04:08:50.526Z,26.60
2022-10-29T04:11:17.650Z,22.83
2022-10-29T04:13:44.846Z,27.10
2022-10-29T04:16:12.082Z,26.42
2022-10-29T04:18:39.379Z,18.00
2022-10-29T04:27:01.739Z,20.30
2022-10-29T04:29:30.792Z,26.00
2022-10-29T04:31:58.020Z,23.58
2022-10-29T04:34:25.326Z,29.90
2022-10-29T04:36:53.710Z,31.48
2022-10-29T04:39:23.379Z,31.33
2022-10-29T04:41:50.952Z,25.42
2022-10-29T04:44:21.849Z,28.48
2022-10-29T04:46:49.178Z,28.48
2022-10-29T04:49:16.551Z,25.52
2022-10-29T04:51:43.903Z,22.35
2022-10-29T04:54:11.480Z,21.20
2022-10-29T04:56:38.668Z,21.13
2022-10-29T04:59:05.880Z,23.40
2022-10-29T05:01:33.316Z,24.92
2022-10-29T05:04:00.652Z,25.05
2022-10-29T05:06:27.923Z,24.38
2022-10-29T05:08:55.135Z,23.65
2022-10-29T05:11:22.355Z,29.38
2022-10-29T05:13:52.091Z,30.85
2022-10-29T05:16:19.396Z,25.92
2022-10-29T05:18:46.697Z,25.20
2022-10-29T05:21:14.069Z,28.27
2022-10-29T05:23:41.384Z,29.52
2022-10-29T05:26:08.601Z,26.73
2022-10-29T05:28:36.083Z,33.05
2022-10-29T05:31:03.410Z,24.80
2022-10-29T05:33:30.697Z,22.50
2022-10-29T05:36:01.183Z,30.65
2022-10-29T05:38:28.467Z,24.83
2022-10-29T05:40:59.476Z,23.65
2022-10-29T05:43:27.012Z,26.02
2022-10-29T05:45:54.549Z,26.13
2022-10-29T05:48:21.780Z,21.92
2022-10-29T05:50:49.237Z,23.70
2022-10-29T05:53:16.525Z,23.35
2022-10-29T05:55:43.800Z,28.33
2022-10-29T05:58:13.523Z,21.10
2022-10-29T06:00:44.065Z,19.83
2022-10-29T06:03:18.134Z,20.58
2022-10-29T06:05:47.762Z,16.95
2022-10-29T06:08:15.589Z,21.27
2022-10-29T06:10:42.966Z,21.27
2022-10-29T06:13:21.729Z,19.10
2022-10-29T06:15:50.358Z,21.27
2022-10-29T06:18:17.643Z,15.63
2022-10-29T06:20:44.961Z,20.08
2022-10-29T06:23:12.290Z,17.98
2022-10-29T06:25:39.808Z,15.55
2022-10-29T06:28:12.264Z,13.60
2022-10-29T06:30:39.578Z,12.85
2022-10-29T06:33:07.282Z,12.48
2022-10-29T06:38:10.844Z,15.55
2022-10-29T06:40:40.502Z,12.60
2022-10-29T06:43:12.551Z,15.05
2022-10-29T06:45:40.008Z,11.05
2022-10-29T06:48:07.472Z,8.73
2022-10-29T06:50:34.950Z,12.38
2022-10-29T06:53:09.715Z,13.77
2022-10-29T06:55:36.949Z,6.97
2022-10-29T06:58:08.218Z,7.97
2022-10-29T07:00:35.892Z,11.68
2022-10-29T07:03:05.168Z,8.15
2022-10-29T07:05:34.001Z,10.98
2022-10-29T07:08:02.101Z,9.23
2022-10-29T07:10:31.815Z,11.32
2022-10-29T07:13:00.006Z,7.97
2022-10-29T07:15:30.328Z,8.18
2022-10-29T07:18:07.557Z,7.88
2022-10-29T07:20:38.789Z,7.97
2022-10-29T07:23:06.223Z,9.13
2022-10-29T07:25:36.389Z,6.63
2022-10-29T07:28:06.390Z,8.35
2022-10-29T07:30:34.470Z,6.90
2022-10-29T07:33:01.882Z,9.13
2022-10-29T07:35:29.460Z,7.60
2022-10-29T07:38:09.126Z,9.27
2022-10-29T07:40:48.404Z,7.78
2022-10-29T07:43:16.816Z,8.60
2022-10-29T07:45:47.150Z,8.82
2022-10-29T07:48:14.339Z,8.48
2022-10-29T07:50:42.024Z,9.27
2022-10-29T07:53:09.953Z,10.15
2022-10-29T07:55:37.525Z,10.70
2022-10-29T07:58:08.661Z,9.05
2022-10-29T08:00:39.922Z,10.25
2022-10-29T08:03:07.290Z,11.73
2022-10-29T08:05:35.094Z,10.52
2022-10-29T08:08:02.548Z,10.27
2022-10-29T08:10:31.313Z,11.98
2022-10-29T08:13:03.160Z,13.10
2022-10-29T08:15:33.380Z,11.35
2022-10-29T08:18:01.788Z,14.77
2022-10-29T08:20:30.735Z,9.77
2022-10-29T08:23:00.929Z,11.32
2022-10-29T08:25:28.622Z,11.23
2022-10-29T08:28:04.872Z,8.43
2022-10-29T08:30:32.930Z,9.43
2022-10-29T08:33:01.679Z,11.90
2022-10-29T08:35:30.103Z,8.93
2022-10-29T08:37:57.670Z,9.40
2022-10-29T08:40:31.637Z,7.05
2022-10-29T08:43:55.680Z,11.18
2022-10-29T08:46:42.386Z,7.38
2022-10-29T08:49:21.937Z,8.68
2022-10-29T08:51:58.756Z,11.13
2022-10-29T08:54:31.771Z,9.23
2022-10-29T08:57:33.365Z,8.85
2022-10-29T09:00:16.960Z,7.90
2022-10-29T09:02:44.881Z,7.63
2022-10-29T09:05:21.230Z,9.07
2022-10-29T09:08:20.486Z,11.77
2022-10-29T09:11:06.185Z,7.67
2022-10-29T09:14:15.640Z,9.38
2022-10-29T09:16:57.380Z,8.73
2022-10-29T09:19:47.513Z,10.90
2022-10-29T09:22:47.756Z,10.70
2022-10-29T09:25:55.925Z,13.52
2022-10-29T09:28:45.049Z,7.90
2022-10-29T09:31:28.710Z,9.37
2022-10-29T09:34:04.569Z,8.98
2022-10-29T09:36:32.843Z,13.38
2022-10-29T09:39:10.111Z,12.93
2022-10-29T09:41:39.113Z,8.20
2022-10-29T09:44:41.521Z,11.93
2022-10-29T09:47:51.122Z,13.35
2022-10-29T09:50:56.742Z,8.43
2022-10-29T09:53:24.501Z,11.50
2022-10-29T09:55:54.879Z,8.63
2022-10-29T09:58:26.036Z,8.80
2022-10-29T10:00:55.043Z,9.32
2022-10-29T10:03:42.034Z,7.83
2022-10-29T10:06:12.987Z,11.07
2022-10-29T10:09:05.018Z,7.18
2022-10-29T10:11:49.282Z,15.63
2022-10-29T10:14:24.184Z,10.15
2022-10-29T10:17:03.222Z,8.30
2022-10-29T10:19:32.843Z,9.25
2022-10-29T10:22:16.549Z,8.57
2022-10-29T10:24:43.853Z,9.82
2022-10-29T10:27:20.478Z,8.73
2022-10-29T10:30:12.750Z,8.20
2022-10-29T10:32:40.198Z,9.10
2022-10-29T10:35:30.938Z,8.60
2022-10-29T10:38:06.634Z,11.65
2022-10-29T10:40:33.962Z,9.98
2022-10-29T10:43:05.514Z,8.63
2022-10-29T10:45:40.209Z,10.48
2022-10-29T10:48:14.664Z,11.48
2022-10-29T10:50:42.120Z,6.35
2022-10-29T10:53:23.067Z,9.07
2022-10-29T10:55:57.986Z,8.52
2022-10-29T10:58:41.687Z,6.45
2022-10-29T11:01:23.856Z,13.82
2022-10-29T11:04:13.106Z,7.05
2022-10-29T11:06:49.866Z,6.10
2022-10-29T11:09:37.675Z,8.38
2022-10-29T11:12:44.475Z,7.47
2022-10-29T11:15:36.443Z,9.35
2022-10-29T11:18:42.320Z,10.75
2022-10-29T11:21:29.285Z,7.50
2022-10-29T11:24:18.161Z,9.13
2022-10-29T11:26:59.939Z,10.48
2022-10-29T11:30:10.119Z,13.35
2022-10-29T11:36:21.287Z,7.57
2022-10-29T11:39:19.298Z,8.25
2022-10-29T11:41:49.587Z,9.45
2022-10-29T11:44:20.791Z,11.52
2022-10-29T11:47:27.948Z,12.13
2022-10-29T11:50:21.147Z,10.93
2022-10-29T11:52:54.842Z,15.40
2022-10-29T11:55:46.477Z,11.68
2022-10-29T11:58:42.899Z,14.48
2022-10-29T12:01:37.967Z,12.20
2022-10-29T12:04:47.525Z,12.43
2022-10-29T12:07:22.434Z,16.33
2022-10-29T12:10:02.137Z,10.18
2022-10-29T12:12:48.316Z,11.82
2022-10-29T12:15:47.113Z,15.35
2022-10-29T12:18:30.611Z,11.57
2022-10-29T12:21:22.629Z,12.23
2022-10-29T12:24:11.310Z,12.63
2022-10-29T12:26:46.605Z,13.65
2022-10-29T12:29:27.890Z,11.48
2022-10-29T12:32:20.338Z,13.63
2022-10-29T12:34:55.974Z,15.38
2022-10-29T12:37:38.008Z,16.83
2022-10-29T12:40:26.036Z,13.18
2022-10-29T12:42:54.918Z,10.27
2022-10-29T12:46:06.357Z,12.52
2022-10-29T12:48:49.670Z,11.13
2022-10-29T12:51:49.078Z,13.07
2022-10-29T12:54:41.161Z,10.55
2022-10-29T12:57:14.563Z,8.48
2022-10-29T12:59:47.174Z,9.57
2022-10-29T13:02:38.826Z,16.05
2022-10-29T13:05:09.820Z,15.35
2022-10-29T13:07:46.443Z,22.15
2022-10-29T13:10:22.586Z,14.70
2022-10-29T13:12:55.692Z,12.77
2022-10-29T13:15:34.853Z,16.73
2022-10-29T13:18:37.648Z,14.98
2022-10-29T13:21:08.744Z,12.82
2022-10-29T13:23:37.719Z,14.73
2022-10-29T13:26:09.488Z,14.55
2022-10-29T13:28:36.695Z,12.00
2022-10-29T13:31:06.878Z,16.08
2022-10-29T13:33:34.038Z,19.55
2022-10-29T13:36:16.549Z,16.88
2022-10-29T13:39:07.369Z,22.00
2022-10-29T13:41:43.394Z,12.85
2022-10-29T13:44:23.667Z,12.52
2022-10-29T13:47:05.302Z,16.40
2022-10-29T13:49:37.688Z,12.25
2022-10-29T13:52:09.057Z,12.90
2022-10-29T13:55:06.423Z,11.80
2022-10-29T13:57:59.516Z,12.55
2022-10-29T14:00:28.222Z,12.98
2022-10-29T14:03:17.018Z,18.58
2022-10-29T14:06:14.079Z,16.23
2022-10-29T14:08:49.054Z,11.95
2022-10-29T14:11:29.934Z,13.90
2022-10-29T14:14:31.340Z,13.65
2022-10-29T14:17:16.320Z,14.32
2022-10-29T14:19:49.485Z,11.43
2022-10-29T14:22:28.685Z,11.40
2022-10-29T14:24:57.096Z,11.27
2022-10-29T14:27:24.317Z,15.38
2022-10-29T14:29:53.162Z,14.13
2022-10-29T14:32:22.833Z,14.05
2022-10-29T14:34:51.862Z,15.13
2022-10-29T14:37:37.693Z,12.07
2022-10-29T14:40:21.412Z,14.20
2022-10-29T14:42:54.058Z,13.77
2022-10-29T14:45:28.416Z,16.80
2022-10-29T14:48:10.131Z,15.20
2022-10-29T14:50:37.647Z,16.17
2022-10-29T14:53:18.568Z,15.82
2022-10-29T14:55:49.275Z,13.10
2022-10-29T14:58:30.018Z,13.90
2022-10-29T15:01:03.645Z,14.95
2022-10-29T15:03:34.037Z,17.17
2022-10-29T15:06:26.026Z,17.55
2022-10-29T15:09:01.488Z,17.48
2022-10-29T15:11:38.726Z,14.80
2022-10-29T15:14:32.987Z,14.75
2022-10-29T15:17:01.539Z,22.02
2022-10-29T15:19:29.172Z,13.40
2022-10-29T15:21:56.471Z,14.80
2022-10-29T15:24:24.553Z,16.88
2022-10-29T15:26:56.511Z,14.75
2022-10-29T15:29:34.031Z,25.08
2022-10-29T15:32:02.924Z,14.82
2022-10-29T15:34:40.497Z,14.75
2022-10-29T15:37:39.104Z,17.58
2022-10-29T15:40:24.290Z,17.55
2022-10-29T15:42:53.103Z,29.05
2022-10-29T15:45:23.896Z,25.10
2022-10-29T15:48:09.167Z,23.80
2022-10-29T15:50:43.479Z,19.48
2022-10-29T15:53:17.681Z,18.92
2022-10-29T15:55:45.197Z,21.50
2022-10-29T15:58:18.183Z,16.77
2022-10-29T16:00:46.417Z,20.08
2022-10-29T16:03:26.758Z,25.27
2022-10-29T16:06:03.949Z,23.50
2022-10-29T16:08:39.548Z,21.65
2022-10-29T16:11:16.112Z,23.20
2022-10-29T16:13:43.478Z,20.40
2022-10-29T16:16:18.762Z,22.27
2022-10-29T16:18:49.078Z,23.20
2022-10-29T16:21:26.075Z,19.02
2022-10-29T16:23:53.780Z,23.55
2022-10-29T16:26:24.791Z,23.30
2022-10-29T16:28:55.638Z,18.77
2022-10-29T16:31:27.509Z,21.00
2022-10-29T16:33:59.039Z,35.60
2022-10-29T16:36:26.494Z,22.75
2022-10-29T16:38:53.715Z,21.90
2022-10-29T16:41:21.584Z,26.45
2022-10-29T16:43:49.188Z,25.05
2022-10-29T16:46:16.572Z,23.42
2022-10-29T16:48:44.227Z,27.17
2022-10-29T16:51:11.458Z,23.02
2022-10-29T16:53:39.106Z,21.70
2022-10-29T16:56:06.876Z,22.70
2022-10-29T16:58:34.293Z,26.92
2022-10-29T17:01:10.722Z,22.08
2022-10-29T17:03:39.314Z,21.75
2022-10-29T17:06:10.529Z,21.92
2022-10-29T17:08:38.948Z,21.10
2022-10-29T17:11:10.283Z,24.27
2022-10-29T17:13:38.679Z,20.42
2022-10-29T17:16:08.389Z,21.90
2022-10-29T17:18:35.794Z,24.35
2022-10-29T17:21:04.120Z,33.17
2022-10-29T17:23:32.932Z,31.98
2022-10-29T17:26:00.818Z,40.22
2022-10-29T17:28:28.747Z,25.52
2022-10-29T17:30:56.116Z,20.30
2022-10-29T17:33:23.548Z,23.13
2022-10-29T17:36:00.160Z,21.80
2022-10-29T17:38:27.492Z,21.65
2022-10-29T17:40:54.721Z,24.30
2022-10-29T17:43:22.217Z,22.88
2022-10-29T17:45:50.667Z,21.80
2022-10-29T17:48:22.329Z,39.85
2022-10-29T17:51:01.817Z,36.25
2022-10-29T17:53:30.695Z,39.55
2022-10-29T17:55:59.920Z,37.85
2022-10-29T17:58:27.973Z,32.88
2022-10-29T18:01:02.423Z,33.83
2022-10-29T18:03:29.729Z,28.52
2022-10-29T18:06:05.889Z,26.65
2022-10-29T18:08:36.008Z,29.58
2022-10-29T18:11:17.446Z,25.92
2022-10-29T18:13:46.455Z,32.38
2022-10-29T18:16:18.541Z,30.92
2022-10-29T18:19:01.004Z,29.13
2022-10-29T18:21:30.348Z,29.55
2022-10-29T18:23:58.175Z,30.92
2022-10-29T18:26:34.231Z,30.00
2022-10-29T18:29:10.626Z,27.35
2022-10-29T18:31:40.262Z,25.67
2022-10-29T18:34:08.010Z,24.60
2022-10-29T18:36:38.963Z,30.98
2022-10-29T18:39:06.594Z,22.30
2022-10-29T18:41:34.944Z,25.30
2022-10-29T18:44:02.596Z,24.05
2022-10-29T18:46:30.025Z,27.80
2022-10-29T18:48:57.316Z,25.13
2022-10-29T18:51:30.565Z,27.17
2022-10-29T18:53:59.520Z,26.08
2022-10-29T18:56:29.477Z,33.00
2022-10-29T18:58:58.995Z,28.58
2022-10-29T19:01:31.727Z,28.88
2022-10-29T19:04:03.700Z,25.77
2022-10-29T19:06:34.335Z,31.27
2022-10-29T19:11:30.891Z,27.67
2022-10-29T19:14:01.686Z,28.23
2022-10-29T19:16:31.128Z,30.88
2022-10-29T19:19:07.970Z,27.83
2022-10-29T19:21:37.189Z,29.70
2022-10-29T19:24:05.770Z,34.58
2022-10-29T19:26:35.902Z,29.15
2022-10-29T19:29:07.943Z,22.42
2022-10-29T19:31:36.779Z,34.30
2022-10-29T19:34:07.284Z,29.40
2022-10-29T19:36:36.952Z,32.70
2022-10-29T19:39:05.008Z,32.78
2022-10-29T19:41:33.014Z,35.25
2022-10-29T19:44:01.969Z,30.40
2022-10-29T19:46:30.313Z,34.15
2022-10-29T19:48:58.507Z,29.98
2022-10-29T19:51:25.970Z,29.02
2022-10-29T19:53:53.407Z,28.48
2022-10-29T19:56:21.754Z,27.98
2022-10-29T19:58:49.305Z,29.30
2022-10-29T20:01:19.008Z,31.90
2022-10-29T20:03:47.213Z,27.38
2022-10-29T20:06:15.921Z,29.92
2022-10-29T20:08:43.330Z,27.58
2022-10-29T20:11:10.855Z,30.65
2022-10-29T20:13:39.883Z,29.25
2022-10-29T20:16:10.278Z,26.05
2022-10-29T20:18:38.490Z,28.88
2022-10-29T20:23:38.710Z,23.92
2022-10-29T20:26:07.401Z,28.23
2022-10-29T20:28:35.257Z,29.27
2022-10-29T20:31:17.825Z,25.85
2022-10-29T20:33:59.285Z,28.80
2022-10-29T20:36:31.631Z,33.08
2022-10-29T20:38:59.099Z,32.67
2022-10-29T20:41:27.633Z,32.70
2022-10-29T20:43:58.021Z,39.05
2022-10-29T20:46:26.491Z,28.90
2022-10-29T20:48:53.898Z,28.95
2022-10-29T20:51:22.903Z,27.73
2022-10-29T20:53:51.593Z,25.77
2022-10-29T20:56:21.152Z,32.33
2022-10-29T20:58:48.563Z,41.95
2022-10-29T21:01:18.434Z,37.90
2022-10-29T21:03:48.108Z,35.63
2022-10-29T21:06:17.538Z,32.70
2022-10-29T21:08:51.108Z,34.35
2022-10-29T21:11:20.696Z,65.20
2022-10-29T21:13:48.077Z,30.15
2022-10-29T21:16:28.206Z,29.17
2022-10-29T21:18:58.598Z,32.22
2022-10-29T21:21:27.465Z,41.35
2022-10-29T21:23:56.389Z,30.75
2022-10-29T21:26:26.365Z,34.13
2022-10-29T21:28:54.662Z,43.28
2022-10-29T21:31:23.485Z,37.53
2022-10-29T21:33:52.556Z,35.58
2022-10-29T21:36:20.324Z,34.35
2022-10-29T21:38:48.265Z,38.35
2022-10-29T21:41:15.967Z,41.90
2022-10-29T21:43:43.203Z,38.58
2022-10-29T21:46:10.773Z,45.88
2022-10-29T21:48:37.931Z,51.08
2022-10-29T21:51:11.754Z,53.58
2022-10-29T21:53:39.039Z,42.28
2022-10-29T21:56:08.750Z,39.10
2022-10-29T21:58:35.984Z,47.63
2022-10-29T22:01:21.254Z,41.50
2022-10-29T22:03:48.533Z,43.92
2022-10-29T22:06:19.108Z,43.17
2022-10-29T22:11:15.730Z,38.63
2022-10-29T22:13:42.944Z,31.95
2022-10-29T22:16:11.550Z,32.53
2022-10-29T22:18:39.888Z,31.13
2022-10-29T22:21:16.060Z,37.38
2022-10-29T22:23:58.205Z,38.08
2022-10-29T22:26:30.524Z,40.78
2022-10-29T22:28:57.937Z,30.10
2022-10-29T22:31:25.358Z,43.08
2022-10-29T22:33:52.819Z,34.30
2022-10-29T22:36:23.904Z,46.55
2022-10-29T22:39:00.032Z,48.55
2022-10-29T22:41:29.413Z,39.70
2022-10-29T22:44:00.050Z,38.60
2022-10-29T22:48:56.490Z,33.53
2022-10-29T22:51:26.704Z,30.75
2022-10-29T22:53:54.838Z,53.00
2022-10-29T22:56:31.864Z,38.78
2022-10-29T22:58:59.610Z,35.75
2022-10-29T23:01:30.696Z,33.50
2022-10-29T23:03:59.183Z,207.35
2022-10-29T23:06:28.245Z,38.97
2022-10-29T23:09:04.005Z,33.60
2022-10-29T23:11:35.008Z,30.92
2022-10-29T23:14:03.006Z,36.15
2022-10-29T23:16:33.055Z,33.40
2022-10-29T23:19:02.914Z,35.17
2022-10-29T23:21:30.301Z,42.47
2022-10-29T23:23:58.269Z,35.67
2022-10-29T23:26:26.798Z,30.35
2022-10-29T23:28:54.079Z,30.27
2022-10-29T23:31:24.490Z,28.55
2022-10-29T23:33:54.353Z,30.15
2022-10-29T23:36:23.957Z,37.10
2022-10-29T23:38:59.942Z,40.22
2022-10-29T23:41:31.661Z,37.90
2022-10-29T23:43:59.425Z,46.67
2022-10-29T23:46:26.597Z,29.17
2022-10-29T23:48:54.321Z,35.30
2022-10-29T23:51:21.927Z,30.02
2022-10-29T23:53:53.124Z,32.30
2022-10-29T23:56:23.735Z,34.47
2022-10-29T23:58:50.865Z,27.95
